Time;durP1;ratioP1;P1;durP2;ratioP2;P2;SDS_P1;SDS_P2;PMS_P1;PMS_P2;Temp;Humidity;BMP_temperature;BMP_pressure;BME280_temperature;BME280_humidity;BME280_pressure;Samples;Min_cycle;Max_cycle;Signal;HPM_P1;HPM_P2
2022/08/24 00:01:49;;;;;;;2.42;1.15;;;;;;;22.29;58.89;100341.06;5115586;28;20497;-79
2022/08/24 00:04:15;;;;;;;8.25;1.30;;;;;;;22.23;59.62;100345.47;5115643;28;20036;-79
2022/08/24 00:06:40;;;;;;;3.90;1.40;;;;;;;22.10;59.71;100347.16;5115500;28;20032;-79
2022/08/24 00:09:06;;;;;;;3.08;1.38;;;;;;;22.60;58.55;100352.31;5115697;28;20450;-79
2022/08/24 00:11:31;;;;;;;3.65;1.35;;;;;;;22.56;58.94;100343.22;5115390;28;20453;-79
2022/08/24 00:13:56;;;;;;;4.05;1.27;;;;;;;22.51;59.42;100353.56;5115354;28;20441;-79
2022/08/24 00:16:22;;;;;;;3.45;1.25;;;;;;;22.37;59.57;100347.34;5115485;28;20019;-79
2022/08/24 00:18:49;;;;;;;2.33;1.10;;;;;;;22.09;60.43;100345.59;5115572;28;20032;-78
2022/08/24 00:21:14;;;;;;;3.95;1.35;;;;;;;21.95;61.29;100356.75;5115206;28;20106;-79
2022/08/24 00:23:40;;;;;;;5.20;1.42;;;;;;;21.90;61.48;100344.91;5115191;28;20051;-79
2022/08/24 00:26:05;;;;;;;3.95;1.48;;;;;;;21.83;61.67;100342.16;5114876;28;20047;-79
2022/08/24 00:28:31;;;;;;;8.77;2.35;;;;;;;22.11;61.16;100348.75;5096921;28;20393;-79
2022/08/24 00:30:56;;;;;;;5.22;1.90;;;;;;;22.26;60.81;100339.13;5115134;28;20032;-79
2022/08/24 00:33:22;;;;;;;3.70;1.60;;;;;;;22.18;60.81;100348.69;5115087;28;20476;-79
2022/08/24 00:35:47;;;;;;;4.45;1.83;;;;;;;21.87;62.24;100351.25;5096877;28;20027;-78
2022/08/24 00:38:13;;;;;;;4.05;1.40;;;;;;;21.63;63.15;100352.16;5097161;28;20076;-79
2022/08/24 00:40:43;;;;;;;5.15;1.85;;;;;;;21.51;62.74;100352.66;5115583;28;20443;-79
2022/08/24 00:43:10;;;;;;;2.90;1.20;;;;;;;21.48;63.04;100345.13;5115015;28;20104;-79
2022/08/24 00:45:47;;;;;;;4.32;1.90;;;;;;;21.53;62.37;100348.28;5096906;28;20419;-79
2022/08/24 00:48:18;;;;;;;3.40;1.40;;;;;;;21.54;62.49;100349.84;5114930;28;20534;-78
2022/08/24 00:50:49;;;;;;;3.88;1.30;;;;;;;21.51;62.45;100355.41;5115009;28;20369;-79
2022/08/24 00:53:28;;;;;;;3.25;1.30;;;;;;;21.55;62.53;100356.19;5115485;28;20096;-79
2022/08/24 00:55:58;;;;;;;3.10;1.30;;;;;;;21.45;62.87;100354.25;5114667;28;20043;-79
2022/08/24 00:58:43;;;;;;;3.50;1.30;;;;;;;21.43;63.03;100351.09;5114923;28;20042;-79
2022/08/24 01:01:11;;;;;;;6.88;1.70;;;;;;;21.45;62.96;100348.69;5115253;28;20039;-79
2022/08/24 01:03:36;;;;;;;3.13;1.20;;;;;;;21.44;63.66;100349.91;5114645;28;20062;-79
2022/08/24 01:06:03;;;;;;;7.30;2.25;;;;;;;21.44;63.48;100344.34;5114541;28;20459;-79
2022/08/24 01:08:28;;;;;;;4.72;1.80;;;;;;;21.41;63.68;100351.50;5114433;28;20058;-79
2022/08/24 01:10:59;;;;;;;3.20;1.30;;;;;;;21.41;63.49;100351.50;5114626;28;20462;-79
2022/08/24 01:13:26;;;;;;;3.55;1.30;;;;;;;21.40;62.92;100349.91;5096517;28;20039;-79
2022/08/24 01:15:54;;;;;;;9.32;1.90;;;;;;;21.38;63.03;100351.50;5114742;28;20035;-79
2022/08/24 01:21:15;;;;;;;4.82;1.55;;;;;;;21.73;62.52;100350.53;5114386;28;20042;-79
2022/08/24 01:23:42;;;;;;;5.45;1.58;;;;;;;21.67;63.16;100347.41;5114313;28;20031;-79
2022/08/24 01:26:12;;;;;;;4.30;1.23;;;;;;;21.19;64.02;100349.97;5095825;28;20506;-79
2022/08/24 01:28:41;;;;;;;3.47;1.38;;;;;;;20.84;65.34;100356.41;5114378;28;20039;-79
2022/08/24 01:31:06;;;;;;;4.70;1.50;;;;;;;20.57;67.24;100359.59;5113860;28;20032;-79
2022/08/24 01:33:32;;;;;;;4.68;1.63;;;;;;;20.50;68.33;100359.59;5113949;28;20073;-79
2022/08/24 01:36:00;;;;;;;;;;;;;;;20.41;68.85;100362.75;5114599;28;20032;-79
2022/08/24 01:38:26;;;;;;;3.30;1.60;;;;;;;20.30;69.52;100361.13;5113695;28;19911;-79
2022/08/24 01:41:01;;;;;;;4.18;1.70;;;;;;;20.20;69.74;100362.72;5113891;28;20036;-79
2022/08/24 01:43:26;;;;;;;2.67;1.35;;;;;;;20.18;69.31;100367.84;5114458;28;20073;-79
2022/08/24 01:45:52;;;;;;;2.70;1.20;;;;;;;20.27;68.63;100362.72;5114018;28;20412;-79
2022/08/24 01:48:19;;;;;;;5.20;1.70;;;;;;;20.34;67.85;100361.94;5114074;28;20466;-79
2022/08/24 01:50:44;;;;;;;3.08;1.42;;;;;;;20.45;67.70;100359.19;5113686;28;20027;-79
2022/08/24 01:53:10;;;;;;;3.72;1.50;;;;;;;20.52;67.17;100359.22;5113711;28;20031;-79
2022/08/24 01:55:35;;;;;;;4.15;1.38;;;;;;;20.38;68.04;100357.19;5114061;28;20396;-79
2022/08/24 01:58:01;;;;;;;;;;;;;;;20.28;68.69;100363.50;5114756;28;20042;-80
2022/08/24 02:00:27;;;;;;;4.78;1.50;;;;;;;20.24;68.82;100362.72;5113665;28;19908;-79
2022/08/24 02:02:55;;;;;;;5.32;1.65;;;;;;;20.21;68.50;100366.28;5095505;28;20154;-79
2022/08/24 02:05:22;;;;;;;3.95;1.48;;;;;;;20.24;68.55;100360.75;5113602;28;20035;-80
2022/08/24 02:07:48;;;;;;;7.00;2.00;;;;;;;20.29;68.13;100357.56;5114012;28;20032;-79
2022/08/24 02:10:14;;;;;;;2.90;1.30;;;;;;;20.32;67.45;100359.56;5113705;28;20429;-81
2022/08/24 02:12:43;;;;;;;4.07;1.73;;;;;;;20.36;67.27;100356.81;5113311;28;20039;-80
2022/08/24 02:15:09;;;;;;;3.85;1.60;;;;;;;20.40;66.81;100360.34;5113473;28;20028;-79
2022/08/24 02:17:36;;;;;;;4.30;1.30;;;;;;;20.48;66.88;100359.19;5113163;28;20474;-79
2022/08/24 02:20:04;;;;;;;3.28;1.40;;;;;;;20.50;66.66;100361.59;5113153;28;20065;-79
2022/08/24 02:22:29;;;;;;;4.00;1.42;;;;;;;20.53;66.17;100361.56;5113554;28;20023;-79
2022/08/24 02:24:54;;;;;;;3.88;1.48;;;;;;;20.57;66.27;100362.34;5095210;28;20110;-78
2022/08/24 02:27:19;;;;;;;3.58;1.33;;;;;;;20.60;66.32;100361.56;5113842;28;20454;-79
2022/08/24 02:29:45;;;;;;;3.33;1.30;;;;;;;20.65;66.01;100366.69;5113529;28;20525;-79
2022/08/24 02:32:11;;;;;;;3.45;1.33;;;;;;;20.65;65.91;100365.88;5113177;28;20032;-79
2022/08/24 02:34:36;;;;;;;3.33;1.40;;;;;;;20.65;66.18;100363.13;5113545;28;20123;-79
2022/08/24 02:37:02;;;;;;;5.85;1.95;;;;;;;20.69;66.01;100364.72;5113455;28;20111;-79
2022/08/24 02:39:28;;;;;;;6.85;2.33;;;;;;;21.18;64.90;100365.81;5095171;28;20058;-79
2022/08/24 02:41:53;;;;;;;3.80;1.52;;;;;;;21.09;66.11;100354.34;5113263;28;20370;-79
2022/08/24 02:44:19;;;;;;;4.60;1.63;;;;;;;20.87;66.99;100373.00;5113531;28;20059;-79
2022/08/24 02:46:45;;;;;;;4.43;1.70;;;;;;;20.59;67.47;100371.03;5113383;28;20028;-79
2022/08/24 02:49:11;;;;;;;5.18;1.80;;;;;;;20.42;67.42;100369.06;5095122;28;20028;-79
2022/08/24 02:51:37;;;;;;;4.32;1.83;;;;;;;20.33;67.17;100376.97;5112978;28;20054;-79
2022/08/24 02:54:04;;;;;;;3.38;1.35;;;;;;;20.22;68.02;100374.19;5112942;28;20035;-79
2022/08/24 02:56:30;;;;;;;3.15;1.40;;;;;;;20.13;68.38;100374.53;5113338;28;20023;-79
2022/08/24 02:58:57;;;;;;;4.13;1.48;;;;;;;20.05;68.94;100372.97;5113892;28;20040;-79
2022/08/24 03:01:22;;;;;;;5.55;2.20;;;;;;;19.99;68.98;100369.03;5095945;28;20116;-79
2022/08/24 03:03:48;;;;;;;4.13;1.85;;;;;;;20.04;69.06;100365.88;5113952;28;20031;-79
2022/08/24 03:06:14;;;;;;;;;;;;;;;19.84;68.52;100361.88;5113379;28;20035;-79
2022/08/24 03:08:39;;;;;;;5.00;1.42;;;;;;;19.83;68.92;100371.34;5095588;28;20269;-79
2022/08/24 03:11:07;;;;;;;3.42;1.30;;;;;;;19.88;68.84;100368.19;5112908;28;20039;-79
2022/08/24 03:13:32;;;;;;;5.63;1.65;;;;;;;19.91;68.52;100367.41;5112856;28;20039;-79
2022/08/24 03:15:58;;;;;;;4.05;2.20;;;;;;;20.27;67.27;100372.97;5113335;28;20036;-79
2022/08/24 03:18:25;;;;;;;3.88;1.65;;;;;;;20.51;66.31;100371.47;5113031;28;20042;-80
2022/08/24 03:20:51;;;;;;;3.22;1.70;;;;;;;20.45;66.76;100376.56;5113029;28;20031;-79
2022/08/24 03:23:17;;;;;;;2.38;1.10;;;;;;;20.37;67.42;100364.72;5113562;28;20118;-79
2022/08/24 03:25:43;;;;;;;2.97;1.35;;;;;;;20.22;67.47;100365.88;5112695;28;20075;-79
2022/08/24 03:28:08;;;;;;;3.88;1.45;;;;;;;20.00;68.62;100364.28;5112860;28;20023;-79
2022/08/24 03:30:34;;;;;;;6.07;2.10;;;;;;;19.93;68.83;100365.03;5113955;28;20080;-79
2022/08/24 03:32:59;;;;;;;;;;;;;;;19.99;68.33;100368.22;5117190;28;20110;-79
2022/08/24 03:35:25;;;;;;;3.28;1.60;;;;;;;19.86;68.77;100369.78;5116621;28;20369;-79
2022/08/24 03:37:51;;;;;;;3.15;1.20;;;;;;;19.72;69.54;100367.75;5116605;28;20027;-79
2022/08/24 03:40:16;;;;;;;;;;;;;;;19.66;70.01;100367.38;5117322;28;20110;-78
2022/08/24 03:42:42;;;;;;;3.78;1.60;;;;;;;19.73;69.10;100369.34;5116574;28;20336;-79
2022/08/24 03:45:08;;;;;;;3.17;1.50;;;;;;;19.89;68.31;100367.00;5116312;28;20027;-79
2022/08/24 03:47:34;;;;;;;2.55;1.27;;;;;;;19.97;68.03;100374.13;5116205;28;20390;-80
2022/08/24 03:49:59;;;;;;;3.42;1.42;;;;;;;19.98;68.20;100364.66;5116109;28;20035;-80
2022/08/24 03:52:25;;;;;;;3.63;1.58;;;;;;;20.06;67.41;100368.22;5116056;28;20024;-81
2022/08/24 03:54:51;;;;;;;2.75;1.20;;;;;;;20.06;67.54;100371.00;5116494;28;20024;-81
2022/08/24 03:57:16;;;;;;;;;;;;;;;20.16;67.62;100370.22;5116779;28;20076;-81
2022/08/24 03:59:42;;;;;;;4.40;1.50;;;;;;;19.84;68.33;100361.88;5116025;28;19911;-81
2022/08/24 04:02:08;;;;;;;;;;;;;;;19.79;68.04;100359.47;5117060;28;20067;-81
2022/08/24 04:04:34;;;;;;;3.30;1.55;;;;;;;19.81;68.37;100360.66;5116179;28;19953;-82
2022/08/24 04:06:59;;;;;;;;;;;;;;;19.85;68.91;100369.00;5116773;28;20038;-81
2022/08/24 04:09:24;;;;;;;4.28;1.70;;;;;;;19.88;69.34;100362.66;5097616;28;19931;-81
2022/08/24 04:11:50;;;;;;;3.80;1.33;;;;;;;19.88;69.33;100368.19;5097663;28;20074;-80
2022/08/24 04:14:16;;;;;;;;;;;;;;;19.96;68.85;100367.03;5116010;28;20031;-80
2022/08/24 04:16:43;;;;;;;3.85;1.50;;;;;;;19.95;68.99;100367.41;5116015;28;19915;-79
2022/08/24 04:19:09;;;;;;;2.65;1.40;;;;;;;19.97;68.28;100368.59;5116097;28;20023;-80
2022/08/24 04:21:36;;;;;;;3.75;1.38;;;;;;;20.01;67.78;100369.41;5115550;28;20083;-80
2022/08/24 04:24:03;;;;;;;4.30;1.60;;;;;;;20.07;67.59;100372.56;5115384;28;20181;-80
2022/08/24 04:26:30;;;;;;;5.70;1.98;;;;;;;20.07;68.47;100370.59;5115159;28;20043;-79
2022/08/24 04:28:57;;;;;;;3.90;1.52;;;;;;;20.10;68.45;100369.81;5115423;28;20035;-80
2022/08/24 04:31:23;;;;;;;3.47;1.40;;;;;;;20.12;67.97;100370.19;5115223;28;20028;-80
2022/08/24 04:33:49;;;;;;;4.32;1.90;;;;;;;20.16;67.69;100366.69;5115209;28;20055;-79
2022/08/24 04:36:17;;;;;;;5.50;2.10;;;;;;;20.18;67.44;100370.63;5115223;28;20110;-80
2022/08/24 04:38:43;;;;;;;6.32;2.22;;;;;;;20.18;68.19;100375.38;5114956;28;20038;-79
2022/08/24 04:41:13;;;;;;;5.88;2.53;;;;;;;20.18;68.33;100375.38;5114771;28;20390;-79
2022/08/24 04:43:43;;;;;;;5.40;1.90;;;;;;;20.18;67.93;100375.38;5097015;28;20024;-81
2022/08/24 04:46:11;;;;;;;4.15;1.83;;;;;;;20.21;67.59;100375.34;5115600;28;20032;-81
2022/08/24 04:48:36;;;;;;;5.43;1.52;;;;;;;20.25;67.31;100375.34;5115142;28;20109;-81
2022/08/24 04:51:06;;;;;;;13.95;5.60;;;;;;;20.23;67.81;100377.72;5115374;28;20118;-80
2022/08/24 04:53:33;;;;;;;5.30;2.50;;;;;;;20.10;68.73;100372.56;5097094;28;20036;-81
2022/08/24 04:55:59;;;;;;;5.03;1.40;;;;;;;20.24;68.36;100374.56;5098348;28;20032;-82
2022/08/24 04:58:26;;;;;;;3.78;1.52;;;;;;;20.54;67.81;100382.50;5115629;28;20039;-82
2022/08/24 05:00:51;;;;;;;5.65;1.85;;;;;;;20.41;68.74;100384.88;5114862;28;20038;-80
2022/08/24 05:03:17;;;;;;;5.32;1.55;;;;;;;20.19;68.96;100386.03;5115335;28;20446;-79
2022/08/24 05:05:47;;;;;;;3.60;1.58;;;;;;;20.09;68.96;100395.88;5114485;28;20032;-80
2022/08/24 05:08:14;;;;;;;3.10;1.50;;;;;;;19.76;70.21;100393.41;5113897;28;20027;-79
2022/08/24 05:10:41;;;;;;;5.07;2.22;;;;;;;19.87;69.60;100397.03;5114734;28;20076;-78
2022/08/24 05:13:07;;;;;;;4.25;1.90;;;;;;;19.89;68.21;100397.41;5114261;28;20490;-80
2022/08/24 05:15:34;;;;;;;5.00;1.83;;;;;;;19.80;68.38;100400.53;5114216;28;20027;-81
2022/08/24 05:18:00;;;;;;;5.95;1.70;;;;;;;19.81;68.00;100402.13;5114091;28;20023;-80
2022/08/24 05:20:26;;;;;;;3.83;1.52;;;;;;;19.89;68.62;100402.94;5095777;28;20034;-81
2022/08/24 05:22:52;;;;;;;5.30;1.60;;;;;;;19.80;68.76;100396.97;5115041;28;20035;-80
2022/08/24 05:25:18;;;;;;;5.53;1.90;;;;;;;19.84;69.51;100403.31;5114155;28;20027;-80
2022/08/24 05:27:43;;;;;;;;;;;;;;;19.83;68.83;100407.28;5114648;28;20038;-80
2022/08/24 05:30:10;;;;;;;4.17;1.70;;;;;;;19.94;68.31;100405.31;5114003;28;20321;-80
2022/08/24 05:32:36;;;;;;;4.45;1.75;;;;;;;20.04;68.23;100410.09;5114332;28;20784;-81
2022/08/24 05:35:03;;;;;;;5.03;2.03;;;;;;;20.03;68.21;100407.72;5114537;28;20371;-80
2022/08/24 05:37:30;;;;;;;6.00;1.85;;;;;;;20.09;67.88;100406.94;5115405;28;20561;-81
2022/08/24 05:39:55;;;;;;;5.93;1.88;;;;;;;20.29;67.66;100401.81;5115469;28;20028;-83
2022/08/24 05:42:20;;;;;;;4.72;1.98;;;;;;;20.29;66.10;100410.13;5115632;28;20130;-83
2022/08/24 05:44:46;;;;;;;;;;;;;;;20.38;64.90;100406.97;5114801;28;20032;-83
2022/08/24 05:47:11;;;;;;;4.88;2.10;;;;;;;20.47;64.58;100409.38;5114373;28;19923;-83
2022/08/24 05:49:36;;;;;;;4.30;2.10;;;;;;;20.52;63.40;100422.81;5114177;28;20031;-83
2022/08/24 05:52:02;;;;;;;4.40;1.95;;;;;;;20.71;63.65;100417.69;5114182;28;20043;-83
2022/08/24 05:54:27;;;;;;;5.38;2.00;;;;;;;20.95;64.04;100426.34;5112884;28;20150;-83
2022/08/24 05:56:53;;;;;;;5.22;1.95;;;;;;;20.98;63.85;100423.56;5113929;28;20067;-82
2022/08/24 05:59:19;;;;;;;5.82;1.85;;;;;;;20.97;64.73;100424.75;5114243;28;20174;-83
2022/08/24 06:01:45;;;;;;;3.47;1.40;;;;;;;20.98;64.97;100431.09;5114098;28;20027;-82
2022/08/24 06:04:11;;;;;;;4.72;1.67;;;;;;;21.16;64.38;100422.75;5095824;28;20024;-82
2022/08/24 06:06:36;;;;;;;4.55;1.77;;;;;;;21.43;63.78;100418.34;5114073;28;20059;-82
2022/08/24 06:09:02;;;;;;;3.67;1.70;;;;;;;21.35;63.90;100427.09;5113668;28;20055;-81
2022/08/24 06:11:34;;;;;;;4.25;1.90;;;;;;;21.27;63.65;100437.41;5094994;28;20480;-81
2022/08/24 06:14:12;;;;;;;3.90;1.80;;;;;;;21.20;64.37;100429.88;5095229;28;20101;-81
2022/08/24 06:16:40;;;;;;;4.90;1.40;;;;;;;21.03;65.31;100437.03;5114227;28;20055;-82
2022/08/24 06:19:08;;;;;;;4.57;1.77;;;;;;;20.94;65.22;100433.88;5113849;28;20423;-82
2022/08/24 06:21:33;;;;;;;6.05;1.83;;;;;;;21.01;64.70;100438.63;5113362;28;20493;-82
2022/08/24 06:23:59;;;;;;;5.43;1.58;;;;;;;20.99;65.83;100436.22;5113315;28;20032;-81
2022/08/24 06:29:10;;;;;;;4.63;1.83;;;;;;;20.98;64.14;100445.72;5113293;28;20116;-81
2022/08/24 06:31:43;;;;;;;4.35;1.70;;;;;;;21.07;62.54;100448.09;5116143;28;20090;-80
2022/08/24 06:34:13;;;;;;;4.93;2.17;;;;;;;21.13;63.12;100451.22;5112941;28;20028;-81
2022/08/24 06:36:39;;;;;;;4.50;1.70;;;;;;;21.19;63.37;100452.44;5113127;28;20067;-81
2022/08/24 06:39:05;;;;;;;4.68;2.20;;;;;;;21.27;63.24;100451.25;5112700;28;20194;-81
2022/08/24 06:41:30;;;;;;;4.88;2.03;;;;;;;21.34;62.85;100456.78;5113130;28;20028;-81
2022/08/24 06:43:56;;;;;;;4.05;2.17;;;;;;;21.54;61.51;100457.13;5112609;28;20031;-80
2022/08/24 06:46:21;;;;;;;5.18;2.13;;;;;;;21.64;61.88;100459.03;5112970;28;20089;-81
2022/08/24 06:48:48;;;;;;;5.22;1.90;;;;;;;21.83;59.55;100455.78;5112541;28;20466;-81
2022/08/24 06:51:17;;;;;;;4.40;2.00;;;;;;;22.24;57.17;100455.22;5094660;28;20036;-83
2022/08/24 06:53:43;;;;;;;4.00;1.70;;;;;;;22.43;57.48;100454.69;5094717;28;20028;-81
2022/08/24 06:56:09;;;;;;;4.07;1.85;;;;;;;22.51;58.22;100461.78;5112649;28;20031;-81
2022/08/24 06:58:35;;;;;;;4.35;2.03;;;;;;;23.01;56.48;100464.19;5112591;28;20035;-80
2022/08/24 07:01:14;;;;;;;7.25;1.90;;;;;;;23.24;54.13;100457.22;5119016;28;20028;-91
2022/08/24 07:03:39;;;;;;;3.75;1.60;;;;;;;23.36;53.28;100465.03;5116979;28;20031;-90
2022/08/24 07:06:06;;;;;;;4.35;1.77;;;;;;;23.62;52.90;100458.78;5120678;28;20032;-89
2022/08/24 07:08:32;;;;;;;5.03;2.58;;;;;;;23.65;51.77;100465.50;5120574;28;20035;-88
2022/08/24 07:10:57;;;;;;;3.50;1.70;;;;;;;23.35;53.20;100463.47;5119382;28;20038;-89
2022/08/24 07:13:22;;;;;;;4.55;1.85;;;;;;;23.23;53.71;100467.53;5119161;28;20476;-89
2022/08/24 07:15:50;;;;;;;4.15;1.77;;;;;;;23.13;54.41;100464.84;5100191;28;20032;-89
2022/08/24 07:18:17;;;;;;;4.05;1.40;;;;;;;23.04;54.65;100471.69;5126954;28;20024;-86
2022/08/24 07:20:43;;;;;;;6.38;1.95;;;;;;;22.91;54.31;100467.84;5136076;28;20038;-88
2022/08/24 07:23:13;;;;;;;3.92;1.60;;;;;;;22.83;53.78;100468.28;5135625;28;20031;-89
2022/08/24 07:25:40;;;;;;;3.33;1.65;;;;;;;23.02;53.26;100471.31;5123452;28;20067;-89
2022/08/24 07:28:06;;;;;;;3.45;1.52;;;;;;;22.88;52.88;100474.22;5119759;28;20134;-88
2022/08/24 07:30:31;;;;;;;3.50;1.70;;;;;;;23.09;51.84;100468.47;5116803;28;20404;-79
2022/08/24 07:32:57;;;;;;;4.32;1.63;;;;;;;23.28;52.16;100472.63;5116458;28;20123;-78
2022/08/24 07:35:25;;;;;;;3.65;1.60;;;;;;;23.36;51.92;100474.16;5116776;28;20085;-79
2022/08/24 07:37:51;;;;;;;3.88;1.70;;;;;;;23.51;51.01;100483.09;5116178;28;20035;-79
2022/08/24 07:40:17;;;;;;;4.55;1.63;;;;;;;23.59;51.23;100481.06;5116518;28;20050;-80
2022/08/24 07:42:49;;;;;;;4.15;1.75;;;;;;;23.95;49.86;100478.66;5116479;28;20080;-80
2022/08/24 07:45:15;;;;;;;3.78;1.85;;;;;;;24.09;49.62;100480.47;5116165;28;20027;-79
2022/08/24 07:47:41;;;;;;;4.38;1.67;;;;;;;24.04;49.50;100492.84;5115890;28;20451;-79
2022/08/24 07:50:06;;;;;;;3.58;1.60;;;;;;;24.09;49.06;100486.81;5097972;28;20062;-80
2022/08/24 07:52:32;;;;;;;4.57;1.60;;;;;;;24.13;48.97;100479.19;5116493;28;20039;-80
2022/08/24 07:54:57;;;;;;;5.38;2.28;;;;;;;24.14;48.35;100479.97;5116305;28;20110;-80
2022/08/24 07:57:23;;;;;;;5.13;1.92;;;;;;;24.24;49.59;100479.06;5115953;28;20525;-79
2022/08/24 07:59:49;;;;;;;3.55;1.85;;;;;;;24.28;48.11;100488.13;5115676;28;20455;-80
2022/08/24 08:02:14;;;;;;;3.60;1.73;;;;;;;24.39;48.53;100485.25;5115863;28;20066;-79
2022/08/24 08:04:40;;;;;;;4.95;1.92;;;;;;;24.76;47.26;100487.84;5097636;28;20437;-79
2022/08/24 08:07:06;;;;;;;4.60;1.60;;;;;;;24.85;46.48;100493.63;5097216;28;20039;-79
2022/08/24 08:09:32;;;;;;;3.58;1.60;;;;;;;24.92;46.44;100489.19;5115530;28;20046;-79
2022/08/24 08:11:58;;;;;;;5.00;2.05;;;;;;;24.82;46.96;100490.91;5115123;28;20085;-80
2022/08/24 08:14:23;;;;;;;3.95;1.58;;;;;;;24.83;46.91;100495.28;5115564;28;20036;-78
2022/08/24 08:16:49;;;;;;;4.97;2.00;;;;;;;24.87;46.44;100499.59;5114760;28;20087;-79
2022/08/24 08:19:14;;;;;;;4.20;1.58;;;;;;;25.03;46.35;100500.97;5115907;28;20031;-79
2022/08/24 08:24:29;;;;;;;3.80;1.80;;;;;;;25.40;44.28;100497.13;5115352;28;20370;-79
2022/08/24 08:26:56;;;;;;;2.95;1.50;;;;;;;25.58;44.41;100505.13;5115045;28;20048;-80
2022/08/24 08:29:23;;;;;;;3.47;1.42;;;;;;;25.52;42.13;100504.03;5115305;28;20035;-80
2022/08/24 08:31:49;;;;;;;4.55;1.48;;;;;;;25.57;43.23;100509.94;5114570;28;20088;-80
2022/08/24 08:34:15;;;;;;;3.00;1.27;;;;;;;25.88;42.69;100504.97;5115057;28;20099;-81
2022/08/24 08:36:42;;;;;;;3.10;1.60;;;;;;;25.97;43.35;100507.94;5115414;28;20534;-80
2022/08/24 08:39:09;;;;;;;5.55;1.52;;;;;;;26.06;41.82;100505.38;5115047;28;20355;-80
2022/08/24 08:42:13;;;;;;;3.50;1.77;;;;;;;26.16;42.63;100508.34;5114696;28;20028;-79
2022/08/24 08:44:42;;;;;;;2.72;1.25;;;;;;;26.27;41.62;100511.72;5114715;28;20030;-80
2022/08/24 08:47:16;;;;;;;3.92;1.65;;;;;;;26.31;42.09;100504.03;5114951;28;20071;-80
2022/08/24 08:50:08;;;;;;;3.72;1.50;;;;;;;26.36;43.20;100504.31;5114385;28;20038;-80
2022/08/24 08:52:58;;;;;;;4.05;1.67;;;;;;;26.50;41.50;100500.44;5114541;28;20077;-79
2022/08/24 08:55:32;;;;;;;4.47;1.50;;;;;;;26.38;41.80;100509.50;5096221;28;20043;-80
2022/08/24 08:58:17;;;;;;;3.10;1.30;;;;;;;26.42;41.89;100499.03;5096324;28;20024;-79
2022/08/24 09:01:00;;;;;;;3.70;1.63;;;;;;;26.52;41.94;100503.56;5114347;28;20488;-80
2022/08/24 09:03:36;;;;;;;4.32;1.50;;;;;;;26.60;42.10;100495.81;5114615;28;20027;-80
2022/08/24 09:06:27;;;;;;;3.80;1.73;;;;;;;26.49;41.66;100495.28;5114505;28;20477;-79
2022/08/24 09:09:10;;;;;;;3.60;1.50;;;;;;;26.65;40.96;100496.09;5114099;28;20035;-79
2022/08/24 09:11:47;;;;;;;4.07;1.42;;;;;;;26.68;41.45;100495.19;5113954;28;20031;-79
2022/08/24 09:14:50;;;;;;;4.13;1.73;;;;;;;26.87;41.03;100501.91;5113968;28;20034;-79
2022/08/24 09:17:31;;;;;;;4.60;1.90;;;;;;;26.96;41.71;100499.31;5114266;28;20028;-79
2022/08/24 09:20:15;;;;;;;3.67;1.70;;;;;;;26.94;40.98;100503.78;5113694;28;20031;-79
2022/08/24 09:22:46;;;;;;;3.83;1.42;;;;;;;26.97;41.08;100498.09;5113957;28;20043;-79
2022/08/24 09:25:49;;;;;;;4.97;1.60;;;;;;;27.05;41.79;100500.75;5113793;28;20032;-79
2022/08/24 09:28:43;;;;;;;4.53;1.30;;;;;;;27.30;40.22;100494.50;5110386;28;20051;-79
2022/08/24 09:31:21;;;;;;;5.80;1.83;;;;;;;27.11;40.23;100491.38;5095614;28;20055;-79
2022/08/24 09:34:14;;;;;;;3.22;1.58;;;;;;;27.09;41.34;100491.03;5113820;28;20535;-79
2022/08/24 09:37:05;;;;;;;3.58;1.17;;;;;;;27.18;40.55;100488.38;5113807;28;20446;-77
2022/08/24 09:39:46;;;;;;;3.58;1.40;;;;;;;27.23;41.15;100487.09;5114584;28;20112;-78
2022/08/24 09:42:34;;;;;;;4.03;1.60;;;;;;;27.34;40.28;100489.59;5095719;28;20031;-80
2022/08/24 09:45:08;;;;;;;3.42;1.55;;;;;;;27.44;40.25;100494.13;5113650;28;20031;-79
2022/08/24 09:48:07;;;;;;;4.30;1.58;;;;;;;27.67;39.81;100485.50;5114208;28;20072;-80
2022/08/24 09:51:10;;;;;;;4.88;1.52;;;;;;;27.80;39.34;100485.53;5113596;28;20027;-80
2022/08/24 09:54:02;;;;;;;4.60;1.30;;;;;;;27.67;39.68;100474.31;5113506;28;20038;-80
2022/08/24 09:57:04;;;;;;;3.35;1.48;;;;;;;27.69;40.45;100477.44;5076934;28;20043;-80
2022/08/24 10:00:10;;;;;;;3.08;1.30;;;;;;;28.21;38.60;100479.09;5113279;28;20031;-80
2022/08/24 10:02:51;;;;;;;2.95;1.30;;;;;;;28.22;38.75;100475.09;5113756;28;20035;-80
2022/08/24 10:05:44;;;;;;;3.30;1.10;;;;;;;28.05;38.85;100470.78;5113175;28;20035;-78
2022/08/24 10:08:44;;;;;;;3.47;1.10;;;;;;;28.20;38.65;100474.72;5112928;28;20163;-78
2022/08/24 10:11:39;;;;;;;3.95;1.45;;;;;;;28.25;39.53;100468.59;5115647;28;20378;-80
2022/08/24 10:14:10;;;;;;;4.25;1.20;;;;;;;28.52;38.24;100464.56;5112995;28;20028;-78
2022/08/24 10:17:18;;;;;;;2.80;1.20;;;;;;;28.59;38.66;100464.34;5115960;28;20024;-79
2022/08/24 10:19:59;;;;;;;4.28;1.40;;;;;;;28.88;37.68;100464.97;5073535;28;20063;-79
2022/08/24 10:22:42;;;;;;;4.93;2.20;;;;;;;28.86;38.50;100466.66;5113095;28;20024;-78
2022/08/24 10:25:27;;;;;;;3.78;1.20;;;;;;;28.87;37.44;100460.63;5095105;28;20036;-80
2022/08/24 10:28:27;;;;;;;3.42;1.00;;;;;;;28.84;37.41;100458.69;5072787;28;20039;-82
2022/08/24 10:31:08;;;;;;;4.07;1.20;;;;;;;28.97;37.45;100456.69;5036711;28;20040;-80
2022/08/24 10:33:49;;;;;;;2.72;0.95;;;;;;;28.99;37.59;100457.00;5072471;28;20025;-79
2022/08/24 10:36:23;;;;;;;3.60;1.30;;;;;;;29.11;36.74;100454.63;5072238;28;20095;-80
2022/08/24 10:42:03;;;;;;;2.90;1.40;;;;;;;28.98;37.21;100455.44;5076259;28;20043;-79
2022/08/24 10:44:36;;;;;;;4.18;1.30;;;;;;;28.89;38.61;100455.38;5076387;28;20024;-79
2022/08/24 10:47:04;;;;;;;4.35;1.10;;;;;;;29.00;37.04;100454.97;5076501;28;20028;-79
2022/08/24 10:50:06;;;;;;;3.88;1.40;;;;;;;29.19;36.82;100453.91;5075137;28;20064;-79
2022/08/24 10:52:40;;;;;;;4.45;1.42;;;;;;;29.58;36.24;100454.56;5076352;28;20426;-79
2022/08/24 10:55:30;;;;;;;4.40;1.42;;;;;;;29.72;35.44;100448.41;5076048;28;20479;-79
2022/08/24 10:58:05;;;;;;;3.30;1.50;;;;;;;29.90;35.28;100442.13;5076029;28;20115;-77
2022/08/24 11:00:31;;;;;;;4.05;1.52;;;;;;;29.97;34.94;100446.69;5076225;28;20044;-79
2022/08/24 11:03:05;;;;;;;3.33;1.40;;;;;;;30.02;34.65;100444.03;5075952;28;20044;-78
2022/08/24 11:05:48;;;;;;;3.90;1.42;;;;;;;30.10;35.29;100448.19;5075829;28;20042;-79
2022/08/24 11:08:34;;;;;;;2.78;1.27;;;;;;;29.86;35.23;100438.66;5074584;28;20029;-78
2022/08/24 11:11:03;;;;;;;;;;;;;;;30.02;34.62;100443.25;5076080;28;20050;-79
2022/08/24 11:13:29;;;;;;;3.92;1.40;;;;;;;30.02;34.30;100432.03;5075932;28;19912;-80
2022/08/24 11:16:00;;;;;;;3.45;1.50;;;;;;;30.00;34.94;100446.53;5075709;28;20486;-79
2022/08/24 11:18:46;;;;;;;8.73;1.83;;;;;;;30.38;33.96;100442.66;5075632;28;20102;-79
2022/08/24 11:21:30;;;;;;;3.47;1.10;;;;;;;30.34;34.31;100440.00;5075440;28;20032;-79
2022/08/24 11:24:01;;;;;;;4.43;1.65;;;;;;;30.21;33.70;100428.88;5075468;28;20363;-79
2022/08/24 11:26:26;;;;;;;2.85;1.33;;;;;;;29.91;35.50;100432.47;5096754;28;20159;-78
2022/08/24 11:28:57;;;;;;;2.70;1.17;;;;;;;30.08;34.53;100422.59;5116836;28;20462;-79
2022/08/24 11:31:33;;;;;;;2.58;1.00;;;;;;;30.58;33.69;100431.81;5116781;28;20368;-80
2022/08/24 11:34:07;;;;;;;3.15;1.52;;;;;;;30.45;33.76;100431.16;5116640;28;20040;-79
2022/08/24 11:36:37;;;;;;;4.47;1.13;;;;;;;30.52;33.50;100431.63;5116538;28;20028;-77
2022/08/24 11:39:27;;;;;;;3.13;1.35;;;;;;;30.73;33.25;100424.34;5116778;28;20090;-77
2022/08/24 11:41:56;;;;;;;2.53;1.30;;;;;;;30.82;33.06;100417.97;5116573;28;20051;-77
2022/08/24 11:44:31;;;;;;;3.38;1.20;;;;;;;30.68;33.09;100421.38;5117525;28;20038;-78
2022/08/24 11:47:16;;;;;;;3.97;1.70;;;;;;;30.30;34.14;100424.53;5117312;28;20055;-78
2022/08/24 11:50:13;;;;;;;2.58;1.20;;;;;;;30.12;34.75;100419.63;5115739;28;20055;-78
2022/08/24 11:52:53;;;;;;;4.18;1.60;;;;;;;30.25;34.67;100414.69;5115529;28;20028;-78
2022/08/24 11:55:29;;;;;;;3.20;1.27;;;;;;;30.24;34.75;100410.34;5115602;28;20137;-78
2022/08/24 11:58:12;;;;;;;3.30;1.33;;;;;;;30.17;34.67;100414.19;5115652;28;20023;-78